sensor_id;sensor_type;location;lat;lon;timestamp;pressure;altitude;pressure_sealevel;temperature;humidity
17764;BME280;22245;52.832;13.816;2022-09-11T00:02:21;101162.69;;;14.35;87.93
17764;BME280;22245;52.832;13.816;2022-09-11T00:05:43;101154.94;;;14.31;88.60
17764;BME280;22245;52.832;13.816;2022-09-11T00:09:05;101158.78;;;14.29;88.72
17764;BME280;22245;52.832;13.816;2022-09-11T00:12:27;101159.22;;;14.24;88.24
17764;BME280;22245;52.832;13.816;2022-09-11T00:15:50;101166.53;;;14.22;89.25
17764;BME280;22245;52.832;13.816;2022-09-11T00:19:16;101165.00;;;14.19;88.35
17764;BME280;22245;52.832;13.816;2022-09-11T00:22:38;101166.97;;;14.17;88.65
17764;BME280;22245;52.832;13.816;2022-09-11T00:26:00;101172.63;;;14.14;88.38
17764;BME280;22245;52.832;13.816;2022-09-11T00:29:23;101168.41;;;14.12;88.63
17764;BME280;22245;52.832;13.816;2022-09-11T00:32:44;101165.16;;;14.08;88.95
17764;BME280;22245;52.832;13.816;2022-09-11T00:36:11;101170.09;;;14.03;88.80
17764;BME280;22245;52.832;13.816;2022-09-11T00:39:33;101171.38;;;13.99;88.55
17764;BME280;22245;52.832;13.816;2022-09-11T00:42:54;101170.69;;;13.97;88.66
17764;BME280;22245;52.832;13.816;2022-09-11T00:46:17;101169.00;;;13.96;88.50
17764;BME280;22245;52.832;13.816;2022-09-11T00:49:41;101169.00;;;13.96;88.68
17764;BME280;22245;52.832;13.816;2022-09-11T00:53:07;101170.13;;;13.93;89.15
17764;BME280;22245;52.832;13.816;2022-09-11T00:56:33;101184.38;;;13.94;88.82
17764;BME280;22245;52.832;13.816;2022-09-11T00:59:58;101184.19;;;13.95;89.19
17764;BME280;22245;52.832;13.816;2022-09-11T01:03:23;101186.06;;;13.95;89.25
17764;BME280;22245;52.832;13.816;2022-09-11T01:06:45;101181.69;;;13.94;89.42
17764;BME280;22245;52.832;13.816;2022-09-11T01:10:10;101182.50;;;13.94;89.00
17764;BME280;22245;52.832;13.816;2022-09-11T01:13:35;101179.84;;;13.94;89.23
17764;BME280;22245;52.832;13.816;2022-09-11T01:17:12;101182.50;;;13.94;89.08
17764;BME280;22245;52.832;13.816;2022-09-11T01:20:51;101179.56;;;13.97;89.70
17764;BME280;22245;52.832;13.816;2022-09-11T01:24:35;101180.13;;;14.01;89.66
17764;BME280;22245;52.832;13.816;2022-09-11T01:28:07;101175.59;;;14.01;90.04
17764;BME280;22245;52.832;13.816;2022-09-11T01:31:37;101180.00;;;14.02;90.44
17764;BME280;22245;52.832;13.816;2022-09-11T01:35:04;101172.09;;;14.01;91.05
17764;BME280;22245;52.832;13.816;2022-09-11T01:38:32;101181.81;;;14.02;91.27
17764;BME280;22245;52.832;13.816;2022-09-11T01:41:59;101180.53;;;14.06;92.11
17764;BME280;22245;52.832;13.816;2022-09-11T01:45:25;101179.41;;;14.09;91.92
17764;BME280;22245;52.832;13.816;2022-09-11T01:48:51;101184.47;;;14.12;92.85
17764;BME280;22245;52.832;13.816;2022-09-11T01:52:18;101189.53;;;14.15;93.07
17764;BME280;22245;52.832;13.816;2022-09-11T01:55:44;101192.75;;;14.18;93.37
17764;BME280;22245;52.832;13.816;2022-09-11T01:59:12;101198.69;;;14.22;94.28
17764;BME280;22245;52.832;13.816;2022-09-11T02:02:39;101201.94;;;14.26;94.44
17764;BME280;22245;52.832;13.816;2022-09-11T02:06:05;101205.84;;;14.31;94.41
17764;BME280;22245;52.832;13.816;2022-09-11T02:09:32;101208.25;;;14.35;94.39
17764;BME280;22245;52.832;13.816;2022-09-11T02:13:01;101201.91;;;14.36;94.84
17764;BME280;22245;52.832;13.816;2022-09-11T02:16:33;101207.13;;;14.27;96.23
17764;BME280;22245;52.832;13.816;2022-09-11T02:19:59;101203.59;;;14.37;95.39
17764;BME280;22245;52.832;13.816;2022-09-11T02:23:21;101204.72;;;14.44;95.41
17764;BME280;22245;52.832;13.816;2022-09-11T02:26:50;101206.25;;;14.46;95.00
17764;BME280;22245;52.832;13.816;2022-09-11T02:30:13;101218.22;;;14.52;95.69
17764;BME280;22245;52.832;13.816;2022-09-11T02:33:36;101207.50;;;14.52;95.08
17764;BME280;22245;52.832;13.816;2022-09-11T02:37:24;101203.38;;;14.58;95.23
17764;BME280;22245;52.832;13.816;2022-09-11T02:40:54;101202.44;;;14.59;94.86
17764;BME280;22245;52.832;13.816;2022-09-11T02:44:29;101201.28;;;14.61;94.92
17764;BME280;22245;52.832;13.816;2022-09-11T02:48:00;101207.19;;;14.65;94.72
17764;BME280;22245;52.832;13.816;2022-09-11T02:51:30;101212.97;;;14.60;95.34
17764;BME280;22245;52.832;13.816;2022-09-11T02:55:05;101213.88;;;14.51;95.66
17764;BME280;22245;52.832;13.816;2022-09-11T02:58:34;101213.00;;;14.51;96.90
17764;BME280;22245;52.832;13.816;2022-09-11T03:01:57;101222.16;;;14.58;95.95
17764;BME280;22245;52.832;13.816;2022-09-11T03:05:22;101227.50;;;14.58;95.76
17764;BME280;22245;52.832;13.816;2022-09-11T03:08:44;101222.59;;;14.63;96.26
17764;BME280;22245;52.832;13.816;2022-09-11T03:12:07;101223.56;;;14.62;95.92
17764;BME280;22245;52.832;13.816;2022-09-11T03:15:30;101228.63;;;14.65;95.50
17764;BME280;22245;52.832;13.816;2022-09-11T03:18:52;101230.16;;;14.68;95.44
17764;BME280;22245;52.832;13.816;2022-09-11T03:22:14;101225.50;;;14.70;95.48
17764;BME280;22245;52.832;13.816;2022-09-11T03:25:35;101223.41;;;14.73;95.80
17764;BME280;22245;52.832;13.816;2022-09-11T03:28:59;101232.84;;;14.78;95.35
17764;BME280;22245;52.832;13.816;2022-09-11T03:32:22;101229.88;;;14.81;94.71
17764;BME280;22245;52.832;13.816;2022-09-11T03:35:44;101228.34;;;14.78;96.29
17764;BME280;22245;52.832;13.816;2022-09-11T03:39:07;101229.88;;;14.81;95.49
17764;BME280;22245;52.832;13.816;2022-09-11T03:42:29;101230.44;;;14.84;95.28
17764;BME280;22245;52.832;13.816;2022-09-11T03:45:54;101231.97;;;14.87;96.01
17764;BME280;22245;52.832;13.816;2022-09-11T03:49:16;101234.22;;;14.92;95.70
17764;BME280;22245;52.832;13.816;2022-09-11T03:52:38;101233.91;;;14.95;95.12
17764;BME280;22245;52.832;13.816;2022-09-11T03:55:59;101237.28;;;14.97;94.47
17764;BME280;22245;52.832;13.816;2022-09-11T03:59:29;101239.69;;;15.00;94.30
17764;BME280;22245;52.832;13.816;2022-09-11T04:02:53;101235.31;;;14.99;94.60
17764;BME280;22245;52.832;13.816;2022-09-11T04:06:27;101237.00;;;15.00;94.32
17764;BME280;22245;52.832;13.816;2022-09-11T04:09:49;101244.91;;;15.01;93.17
17764;BME280;22245;52.832;13.816;2022-09-11T04:13:11;101250.09;;;15.03;92.92
17764;BME280;22245;52.832;13.816;2022-09-11T04:16:33;101245.03;;;15.00;93.43
17764;BME280;22245;52.832;13.816;2022-09-11T04:19:57;101238.69;;;15.01;94.52
17764;BME280;22245;52.832;13.816;2022-09-11T04:23:19;101238.38;;;15.04;94.69
17764;BME280;22245;52.832;13.816;2022-09-11T04:26:41;101243.63;;;15.05;94.94
17764;BME280;22245;52.832;13.816;2022-09-11T04:30:14;101243.44;;;15.07;95.16
17764;BME280;22245;52.832;13.816;2022-09-11T04:33:35;101243.03;;;15.12;94.47
17764;BME280;22245;52.832;13.816;2022-09-11T04:37:00;101257.44;;;15.11;94.74
17764;BME280;22245;52.832;13.816;2022-09-11T04:40:23;101255.56;;;15.11;95.29
17764;BME280;22245;52.832;13.816;2022-09-11T04:43:46;101250.38;;;15.10;95.55
17764;BME280;22245;52.832;13.816;2022-09-11T04:47:08;101248.81;;;15.07;96.56
17764;BME280;22245;52.832;13.816;2022-09-11T04:50:32;101245.00;;;15.10;96.25
17764;BME280;22245;52.832;13.816;2022-09-11T04:54:27;101252.75;;;15.13;96.30
17764;BME280;22245;52.832;13.816;2022-09-11T04:57:49;101251.63;;;15.15;95.92
17764;BME280;22245;52.832;13.816;2022-09-11T05:01:12;101259.38;;;15.18;95.96
17764;BME280;22245;52.832;13.816;2022-09-11T05:04:36;101262.34;;;15.15;95.42
17764;BME280;22245;52.832;13.816;2022-09-11T05:07:58;101263.06;;;15.17;95.19
17764;BME280;22245;52.832;13.816;2022-09-11T05:11:21;101269.13;;;15.19;95.29
17764;BME280;22245;52.832;13.816;2022-09-11T05:14:45;101271.66;;;15.11;95.29
17764;BME280;22245;52.832;13.816;2022-09-11T05:18:06;101279.72;;;15.11;95.67
17764;BME280;22245;52.832;13.816;2022-09-11T05:21:30;101280.97;;;15.17;95.72
17764;BME280;22245;52.832;13.816;2022-09-11T05:24:52;101287.47;;;15.14;95.94
17764;BME280;22245;52.832;13.816;2022-09-11T05:28:16;101284.34;;;15.19;95.86
17764;BME280;22245;52.832;13.816;2022-09-11T05:31:40;101302.00;;;15.22;95.35
17764;BME280;22245;52.832;13.816;2022-09-11T05:35:05;101299.47;;;15.20;95.94
17764;BME280;22245;52.832;13.816;2022-09-11T05:38:27;101294.66;;;15.24;95.87
17764;BME280;22245;52.832;13.816;2022-09-11T05:41:49;101300.84;;;15.24;95.92
17764;BME280;22245;52.832;13.816;2022-09-11T05:45:12;101306.47;;;15.31;95.41
17764;BME280;22245;52.832;13.816;2022-09-11T05:48:34;101306.72;;;15.38;94.85
17764;BME280;22245;52.832;13.816;2022-09-11T05:51:57;101310.13;;;15.40;94.16
17764;BME280;22245;52.832;13.816;2022-09-11T05:55:20;101316.72;;;15.45;94.37
17764;BME280;22245;52.832;13.816;2022-09-11T05:58:43;101329.81;;;15.48;94.41
17764;BME280;22245;52.832;13.816;2022-09-11T06:02:08;101337.19;;;15.46;94.78
17764;BME280;22245;52.832;13.816;2022-09-11T06:05:44;101336.50;;;15.44;95.28
17764;BME280;22245;52.832;13.816;2022-09-11T06:09:06;101337.34;;;15.45;95.65
17764;BME280;22245;52.832;13.816;2022-09-11T06:12:28;101344.25;;;15.47;95.77
17764;BME280;22245;52.832;13.816;2022-09-11T06:15:51;101337.31;;;15.55;95.18
17764;BME280;22245;52.832;13.816;2022-09-11T06:19:14;101344.19;;;15.57;94.85
17764;BME280;22245;52.832;13.816;2022-09-11T06:22:37;101346.75;;;15.59;95.17
17764;BME280;22245;52.832;13.816;2022-09-11T06:26:03;101359.31;;;15.58;95.65
17764;BME280;22245;52.832;13.816;2022-09-11T06:29:28;101361.31;;;15.56;95.26
17764;BME280;22245;52.832;13.816;2022-09-11T06:32:52;101362.00;;;15.58;96.01
17764;BME280;22245;52.832;13.816;2022-09-11T06:36:19;101366.25;;;15.61;95.32
17764;BME280;22245;52.832;13.816;2022-09-11T06:39:43;101364.84;;;15.57;95.75
17764;BME280;22245;52.832;13.816;2022-09-11T06:43:12;101364.56;;;15.60;95.78
17764;BME280;22245;52.832;13.816;2022-09-11T06:46:34;101358.78;;;15.55;96.61
17764;BME280;22245;52.832;13.816;2022-09-11T06:49:56;101360.19;;;15.59;95.47
17764;BME280;22245;52.832;13.816;2022-09-11T06:53:24;101368.63;;;15.64;95.88
17764;BME280;22245;52.832;13.816;2022-09-11T06:56:47;101366.16;;;15.71;95.98
17764;BME280;22245;52.832;13.816;2022-09-11T07:00:09;101368.56;;;15.74;95.95
17764;BME280;22245;52.832;13.816;2022-09-11T07:03:33;101367.97;;;15.80;96.03
17764;BME280;22245;52.832;13.816;2022-09-11T07:06:58;101375.88;;;15.82;95.78
17764;BME280;22245;52.832;13.816;2022-09-11T07:10:23;101371.34;;;15.82;95.96
17764;BME280;22245;52.832;13.816;2022-09-11T07:13:49;101378.25;;;15.85;96.51
17764;BME280;22245;52.832;13.816;2022-09-11T07:17:11;101376.84;;;15.90;95.81
17764;BME280;22245;52.832;13.816;2022-09-11T07:20:37;101373.16;;;15.91;95.73
17764;BME280;22245;52.832;13.816;2022-09-11T07:23:59;101372.72;;;15.96;95.00
17764;BME280;22245;52.832;13.816;2022-09-11T07:27:28;101371.03;;;15.95;95.63
17764;BME280;22245;52.832;13.816;2022-09-11T07:30:53;101383.59;;;15.95;96.12
17764;BME280;22245;52.832;13.816;2022-09-11T07:34:15;101379.47;;;16.00;95.47
17764;BME280;22245;52.832;13.816;2022-09-11T07:37:37;101383.16;;;15.99;95.96
17764;BME280;22245;52.832;13.816;2022-09-11T07:40:59;101378.09;;;15.96;96.02
17764;BME280;22245;52.832;13.816;2022-09-11T07:44:25;101393.22;;;15.97;96.15
17764;BME280;22245;52.832;13.816;2022-09-11T07:47:46;101384.69;;;16.02;95.51
17764;BME280;22245;52.832;13.816;2022-09-11T07:51:11;101384.94;;;16.09;95.40
17764;BME280;22245;52.832;13.816;2022-09-11T07:54:34;101397.44;;;16.18;95.35
17764;BME280;22245;52.832;13.816;2022-09-11T07:57:57;101392.47;;;16.23;95.26
17764;BME280;22245;52.832;13.816;2022-09-11T08:01:23;101391.63;;;16.23;95.14
17764;BME280;22245;52.832;13.816;2022-09-11T08:04:45;101394.41;;;16.31;95.66
17764;BME280;22245;52.832;13.816;2022-09-11T08:08:07;101402.00;;;16.35;95.19
17764;BME280;22245;52.832;13.816;2022-09-11T08:11:30;101396.69;;;16.44;94.83
17764;BME280;22245;52.832;13.816;2022-09-11T08:14:55;101404.69;;;16.54;94.39
17764;BME280;22245;52.832;13.816;2022-09-11T08:18:18;101403.38;;;16.58;94.06
17764;BME280;22245;52.832;13.816;2022-09-11T08:21:40;101402.22;;;16.60;93.51
17764;BME280;22245;52.832;13.816;2022-09-11T08:25:04;101414.84;;;16.60;91.66
17764;BME280;22245;52.832;13.816;2022-09-11T08:28:26;101421.13;;;16.69;91.50
17764;BME280;22245;52.832;13.816;2022-09-11T08:31:48;101419.81;;;16.73;91.75
17764;BME280;22245;52.832;13.816;2022-09-11T08:35:12;101417.97;;;16.73;90.92
17764;BME280;22245;52.832;13.816;2022-09-11T08:38:36;101429.78;;;16.81;90.75
17764;BME280;22245;52.832;13.816;2022-09-11T08:42:02;101422.41;;;16.83;89.38
17764;BME280;22245;52.832;13.816;2022-09-11T08:45:29;101432.56;;;16.89;90.53
17764;BME280;22245;52.832;13.816;2022-09-11T08:48:56;101431.75;;;16.97;89.87
17764;BME280;22245;52.832;13.816;2022-09-11T08:52:23;101432.16;;;17.02;88.76
17764;BME280;22245;52.832;13.816;2022-09-11T08:55:48;101441.16;;;17.11;88.92
17764;BME280;22245;52.832;13.816;2022-09-11T08:59:20;101437.13;;;17.15;88.93
17764;BME280;22245;52.832;13.816;2022-09-11T09:03:10;101437.69;;;17.18;87.96
17764;BME280;22245;52.832;13.816;2022-09-11T09:06:44;101445.13;;;17.25;87.46
17764;BME280;22245;52.832;13.816;2022-09-11T09:10:20;101436.41;;;17.31;87.65
17764;BME280;22245;52.832;13.816;2022-09-11T09:17:36;101442.84;;;17.38;84.88
17764;BME280;22245;52.832;13.816;2022-09-11T09:21:02;101445.94;;;17.43;84.31
17764;BME280;22245;52.832;13.816;2022-09-11T09:24:31;101452.34;;;17.50;85.05
17764;BME280;22245;52.832;13.816;2022-09-11T09:28:00;101457.41;;;17.54;83.90
17764;BME280;22245;52.832;13.816;2022-09-11T09:31:29;101451.53;;;17.58;84.21
17764;BME280;22245;52.832;13.816;2022-09-11T09:34:58;101453.22;;;17.59;84.49
17764;BME280;22245;52.832;13.816;2022-09-11T09:38:22;101467.69;;;17.58;83.62
17764;BME280;22245;52.832;13.816;2022-09-11T09:42:06;101464.50;;;17.55;81.52
17764;BME280;22245;52.832;13.816;2022-09-11T09:45:56;101462.84;;;17.62;80.97
17764;BME280;22245;52.832;13.816;2022-09-11T09:49:26;101461.84;;;17.63;79.55
17764;BME280;22245;52.832;13.816;2022-09-11T09:52:48;101465.88;;;17.59;79.33
17764;BME280;22245;52.832;13.816;2022-09-11T09:56:14;101454.78;;;17.62;78.47
17764;BME280;22245;52.832;13.816;2022-09-11T09:59:40;101461.19;;;17.69;79.21
17764;BME280;22245;52.832;13.816;2022-09-11T10:03:17;101466.25;;;17.72;76.55
17764;BME280;22245;52.832;13.816;2022-09-11T10:06:40;101463.53;;;17.64;76.77
17764;BME280;22245;52.832;13.816;2022-09-11T10:10:03;101462.88;;;17.70;78.74
17764;BME280;22245;52.832;13.816;2022-09-11T10:13:26;101461.72;;;17.73;76.09
17764;BME280;22245;52.832;13.816;2022-09-11T10:16:48;101467.94;;;17.73;77.13
17764;BME280;22245;52.832;13.816;2022-09-11T10:20:19;101471.53;;;17.82;77.60
17764;BME280;22245;52.832;13.816;2022-09-11T10:23:44;101475.59;;;17.86;76.25
17764;BME280;22245;52.832;13.816;2022-09-11T10:27:09;101476.59;;;17.85;75.32
17764;BME280;22245;52.832;13.816;2022-09-11T10:30:34;101478.16;;;17.96;75.80
17764;BME280;22245;52.832;13.816;2022-09-11T10:33:57;101481.34;;;17.91;75.05
17764;BME280;22245;52.832;13.816;2022-09-11T10:37:24;101476.28;;;17.88;75.46
17764;BME280;22245;52.832;13.816;2022-09-11T10:40:56;101470.19;;;17.86;74.39
17764;BME280;22245;52.832;13.816;2022-09-11T10:44:19;101468.50;;;17.85;74.37
17764;BME280;22245;52.832;13.816;2022-09-11T10:47:42;101467.88;;;17.91;75.04
17764;BME280;22245;52.832;13.816;2022-09-11T10:51:07;101482.56;;;17.97;72.37
17764;BME280;22245;52.832;13.816;2022-09-11T10:54:44;101471.00;;;18.05;73.74
17764;BME280;22245;52.832;13.816;2022-09-11T10:58:12;101472.84;;;18.04;73.46
17764;BME280;22245;52.832;13.816;2022-09-11T11:01:36;101461.94;;;18.14;74.89
17764;BME280;22245;52.832;13.816;2022-09-11T11:05:02;101467.53;;;18.21;75.05
17764;BME280;22245;52.832;13.816;2022-09-11T11:08:55;101461.63;;;18.26;75.99
17764;BME280;22245;52.832;13.816;2022-09-11T11:12:34;101454.94;;;18.38;75.94
17764;BME280;22245;52.832;13.816;2022-09-11T11:16:06;101457.63;;;18.38;73.22
17764;BME280;22245;52.832;13.816;2022-09-11T11:19:49;101454.94;;;18.38;72.91
17764;BME280;22245;52.832;13.816;2022-09-11T11:23:41;101460.31;;;18.38;72.66
17764;BME280;22245;52.832;13.816;2022-09-11T11:27:27;101470.09;;;18.47;73.00
17764;BME280;22245;52.832;13.816;2022-09-11T11:30:58;101468.56;;;18.53;72.31
17764;BME280;22245;52.832;13.816;2022-09-11T11:34:41;101468.25;;;18.48;71.30
17764;BME280;22245;52.832;13.816;2022-09-11T11:38:10;101467.56;;;18.54;72.73
17764;BME280;22245;52.832;13.816;2022-09-11T11:41:38;101466.25;;;18.58;72.12
17764;BME280;22245;52.832;13.816;2022-09-11T11:45:08;101470.13;;;18.64;71.54
17764;BME280;22245;52.832;13.816;2022-09-11T11:48:37;101472.66;;;18.65;71.54
17764;BME280;22245;52.832;13.816;2022-09-11T11:52:16;101466.41;;;18.65;71.65
17764;BME280;22245;52.832;13.816;2022-09-11T11:55:49;101481.06;;;18.54;70.62
17764;BME280;22245;52.832;13.816;2022-09-11T11:59:18;101480.56;;;18.59;70.65
17764;BME280;22245;52.832;13.816;2022-09-11T12:02:48;101479.38;;;18.53;70.95
17764;BME280;22245;52.832;13.816;2022-09-11T12:06:14;101497.41;;;18.52;73.05
17764;BME280;22245;52.832;13.816;2022-09-11T12:09:36;101495.88;;;18.50;74.12
17764;BME280;22245;52.832;13.816;2022-09-11T12:12:59;101493.88;;;18.52;74.96
17764;BME280;22245;52.832;13.816;2022-09-11T12:16:25;101486.63;;;18.52;74.90
17764;BME280;22245;52.832;13.816;2022-09-11T12:24:17;101484.13;;;18.59;76.40
17764;BME280;22245;52.832;13.816;2022-09-11T12:27:52;101478.72;;;18.59;75.60
17764;BME280;22245;52.832;13.816;2022-09-11T12:31:15;101478.06;;;18.65;75.80
17764;BME280;22245;52.832;13.816;2022-09-11T12:34:56;101477.38;;;18.72;77.14
17764;BME280;22245;52.832;13.816;2022-09-11T12:38:24;101483.13;;;18.77;78.55
17764;BME280;22245;52.832;13.816;2022-09-11T12:41:49;101493.91;;;18.77;76.05
17764;BME280;22245;52.832;13.816;2022-09-11T12:45:29;101491.41;;;18.75;74.05
17764;BME280;22245;52.832;13.816;2022-09-11T12:48:53;101496.28;;;18.72;73.34
17764;BME280;22245;52.832;13.816;2022-09-11T12:52:39;101502.16;;;18.59;75.37
17764;BME280;22245;52.832;13.816;2022-09-11T12:56:07;101502.81;;;18.44;76.25
17764;BME280;22245;52.832;13.816;2022-09-11T12:59:42;101507.44;;;18.17;76.58
17764;BME280;22245;52.832;13.816;2022-09-11T13:03:15;101510.31;;;17.89;77.72
17764;BME280;22245;52.832;13.816;2022-09-11T13:06:40;101517.50;;;17.81;78.37
17764;BME280;22245;52.832;13.816;2022-09-11T13:10:06;101515.72;;;17.63;78.30
17764;BME280;22245;52.832;13.816;2022-09-11T13:13:42;101518.72;;;17.60;79.51
17764;BME280;22245;52.832;13.816;2022-09-11T13:17:13;101523.19;;;17.51;79.65
17764;BME280;22245;52.832;13.816;2022-09-11T13:20:35;101523.84;;;17.45;80.59
17764;BME280;22245;52.832;13.816;2022-09-11T13:24:01;101522.16;;;17.44;81.46
17764;BME280;22245;52.832;13.816;2022-09-11T13:27:25;101510.31;;;17.36;82.93
17764;BME280;22245;52.832;13.816;2022-09-11T13:30:54;101527.81;;;17.14;84.87
17764;BME280;22245;52.832;13.816;2022-09-11T13:34:21;101526.22;;;17.03;84.00
17764;BME280;22245;52.832;13.816;2022-09-11T13:37:46;101520.13;;;17.01;83.43
17764;BME280;22245;52.832;13.816;2022-09-11T13:41:14;101522.66;;;17.03;82.96
17764;BME280;22245;52.832;13.816;2022-09-11T13:44:41;101518.50;;;17.09;83.27
17764;BME280;22245;52.832;13.816;2022-09-11T13:48:11;101519.88;;;17.13;84.61
17764;BME280;22245;52.832;13.816;2022-09-11T13:51:43;101527.66;;;17.16;83.69
17764;BME280;22245;52.832;13.816;2022-09-11T13:55:09;101522.34;;;17.24;83.19
17764;BME280;22245;52.832;13.816;2022-09-11T13:58:32;101512.66;;;17.31;83.03
17764;BME280;22245;52.832;13.816;2022-09-11T14:01:57;101511.16;;;17.37;83.44
17764;BME280;22245;52.832;13.816;2022-09-11T14:05:22;101506.00;;;17.44;83.66
17764;BME280;22245;52.832;13.816;2022-09-11T14:08:50;101521.69;;;17.48;82.46
17764;BME280;22245;52.832;13.816;2022-09-11T14:12:17;101512.78;;;17.56;82.99
17764;BME280;22245;52.832;13.816;2022-09-11T14:15:41;101507.09;;;17.59;82.45
17764;BME280;22245;52.832;13.816;2022-09-11T14:19:07;101512.38;;;17.69;81.70
17764;BME280;22245;52.832;13.816;2022-09-11T14:22:31;101511.59;;;17.77;80.81
17764;BME280;22245;52.832;13.816;2022-09-11T14:26:10;101505.41;;;17.85;81.00
17764;BME280;22245;52.832;13.816;2022-09-11T14:29:36;101516.53;;;17.90;82.00
17764;BME280;22245;52.832;13.816;2022-09-11T14:33:21;101509.66;;;17.96;80.78
17764;BME280;22245;52.832;13.816;2022-09-11T14:36:47;101509.06;;;18.02;79.57
17764;BME280;22245;52.832;13.816;2022-09-11T14:40:14;101495.09;;;18.15;79.47
17764;BME280;22245;52.832;13.816;2022-09-11T14:43:37;101502.72;;;18.19;78.21
17764;BME280;22245;52.832;13.816;2022-09-11T14:47:00;101506.41;;;18.10;75.53
17764;BME280;22245;52.832;13.816;2022-09-11T14:50:21;101498.44;;;18.08;74.95
17764;BME280;22245;52.832;13.816;2022-09-11T14:53:44;101510.44;;;18.14;74.89
17764;BME280;22245;52.832;13.816;2022-09-11T14:57:10;101499.34;;;18.17;74.61
17764;BME280;22245;52.832;13.816;2022-09-11T15:00:40;101503.75;;;18.35;75.84
17764;BME280;22245;52.832;13.816;2022-09-11T15:04:02;101499.44;;;18.50;75.44
17764;BME280;22245;52.832;13.816;2022-09-11T15:07:24;101505.50;;;18.52;74.27
17764;BME280;22245;52.832;13.816;2022-09-11T15:10:47;101495.75;;;18.68;73.45
17764;BME280;22245;52.832;13.816;2022-09-11T15:14:09;101483.28;;;19.42;70.42
17764;BME280;22245;52.832;13.816;2022-09-11T15:17:52;101488.13;;;20.51;65.25
17764;BME280;22245;52.832;13.816;2022-09-11T15:21:15;101481.81;;;21.44;63.00
17764;BME280;22245;52.832;13.816;2022-09-11T15:24:38;101482.59;;;21.82;59.68
17764;BME280;22245;52.832;13.816;2022-09-11T15:28:13;101489.16;;;21.88;58.09
17764;BME280;22245;52.832;13.816;2022-09-11T15:31:35;101491.56;;;21.98;59.26
17764;BME280;22245;52.832;13.816;2022-09-11T15:34:58;101488.63;;;22.15;56.73
17764;BME280;22245;52.832;13.816;2022-09-11T15:38:20;101492.94;;;21.94;56.14
17764;BME280;22245;52.832;13.816;2022-09-11T15:41:43;101482.69;;;22.04;57.14
17764;BME280;22245;52.832;13.816;2022-09-11T15:45:07;101489.94;;;22.19;57.40
17764;BME280;22245;52.832;13.816;2022-09-11T15:48:29;101485.47;;;21.96;59.37
17764;BME280;22245;52.832;13.816;2022-09-11T15:51:52;101489.03;;;21.66;58.13
17764;BME280;22245;52.832;13.816;2022-09-11T15:55:14;101492.66;;;21.59;58.58
17764;BME280;22245;52.832;13.816;2022-09-11T15:58:37;101499.13;;;21.19;59.97
17764;BME280;22245;52.832;13.816;2022-09-11T16:01:59;101497.56;;;20.87;60.59
17764;BME280;22245;52.832;13.816;2022-09-11T16:05:21;101499.44;;;20.54;62.38
17764;BME280;22245;52.832;13.816;2022-09-11T16:08:44;101505.88;;;20.22;63.46
17764;BME280;22245;52.832;13.816;2022-09-11T16:12:07;101525.06;;;20.04;65.12
17764;BME280;22245;52.832;13.816;2022-09-11T16:15:28;101520.22;;;19.74;65.86
17764;BME280;22245;52.832;13.816;2022-09-11T16:18:51;101531.25;;;19.23;66.57
17764;BME280;22245;52.832;13.816;2022-09-11T16:22:12;101524.34;;;19.04;66.04
17764;BME280;22245;52.832;13.816;2022-09-11T16:25:38;101522.44;;;18.96;65.98
17764;BME280;22245;52.832;13.816;2022-09-11T16:28:59;101522.41;;;18.71;64.08
17764;BME280;22245;52.832;13.816;2022-09-11T16:32:21;101522.47;;;19.04;63.93
17764;BME280;22245;52.832;13.816;2022-09-11T16:35:56;101510.66;;;19.38;63.19
17764;BME280;22245;52.832;13.816;2022-09-11T16:39:18;101512.84;;;19.43;63.03
17764;BME280;22245;52.832;13.816;2022-09-11T16:42:41;101517.59;;;19.08;62.60
17764;BME280;22245;52.832;13.816;2022-09-11T16:46:03;101517.22;;;18.94;63.83
17764;BME280;22245;52.832;13.816;2022-09-11T16:49:26;101507.06;;;18.80;63.42
17764;BME280;22245;52.832;13.816;2022-09-11T16:52:48;101509.44;;;18.66;63.90
17764;BME280;22245;52.832;13.816;2022-09-11T16:56:12;101507.88;;;18.56;64.71
17764;BME280;22245;52.832;13.816;2022-09-11T16:59:35;101509.72;;;18.55;64.88
17764;BME280;22245;52.832;13.816;2022-09-11T17:02:57;101513.94;;;18.49;68.07
17764;BME280;22245;52.832;13.816;2022-09-11T17:06:20;101511.03;;;18.43;68.69
17764;BME280;22245;52.832;13.816;2022-09-11T17:09:42;101512.72;;;18.35;71.47
17764;BME280;22245;52.832;13.816;2022-09-11T17:13:05;101515.72;;;18.24;72.43
17764;BME280;22245;52.832;13.816;2022-09-11T17:16:29;101513.63;;;18.10;73.55
17764;BME280;22245;52.832;13.816;2022-09-11T17:19:52;101519.28;;;17.98;74.63
17764;BME280;22245;52.832;13.816;2022-09-11T17:23:13;101518.88;;;17.85;75.86
17764;BME280;22245;52.832;13.816;2022-09-11T17:26:36;101520.31;;;17.71;76.33
17764;BME280;22245;52.832;13.816;2022-09-11T17:29:58;101523.25;;;17.59;76.87
17764;BME280;22245;52.832;13.816;2022-09-11T17:33:22;101528.59;;;17.51;77.89
17764;BME280;22245;52.832;13.816;2022-09-11T17:36:44;101523.28;;;17.41;78.18
17764;BME280;22245;52.832;13.816;2022-09-11T17:40:08;101536.72;;;17.33;78.43
17764;BME280;22245;52.832;13.816;2022-09-11T17:43:31;101540.19;;;17.25;78.89
17764;BME280;22245;52.832;13.816;2022-09-11T17:46:53;101543.47;;;17.19;79.43
17764;BME280;22245;52.832;13.816;2022-09-11T17:50:20;101539.41;;;17.15;79.75
17764;BME280;22245;52.832;13.816;2022-09-11T17:53:48;101530.97;;;17.10;79.86